Time;durP1;ratioP1;P1;durP2;ratioP2;P2;SDS_P1;SDS_P2;PMS_P1;PMS_P2;Temp;Humidity;BMP_temperature;BMP_pressure;BME280_temperature;BME280_humidity;BME280_pressure;Samples;Min_cycle;Max_cycle;Signal;HPM_P1;HPM_P2
2023/07/05 00:00:41;;;;;;;;;;;;;;;;;;5086641;28;19924;-69
2023/07/05 00:03:08;;;;;;;;;;;;;;;;;;5099727;28;20062;-68
2023/07/05 00:05:36;;;;;;;;;;;;;;;;;;5090962;28;20394;-68
2023/07/05 00:08:02;;;;;;;;;;;;;;;;;;5091232;28;19928;-68
2023/07/05 00:10:29;;;;;;;;;;;;;;;;;;5090499;28;19924;-68
2023/07/05 00:12:56;;;;;;;;;;;;;;;;;;5085585;28;19924;-68
2023/07/05 00:15:25;;;;;;;;;;;;;;;;;;5089024;28;20285;-68
2023/07/05 00:17:52;;;;;;;;;;;;;;;;;;5091321;28;19931;-68
2023/07/05 00:20:19;;;;;;;;;;;;;;;;;;5092151;28;19967;-68
2023/07/05 00:22:46;;;;;;;;;;;;;;;;;;5090082;28;19967;-68
2023/07/05 00:25:13;;;;;;;;;;;;;;;;;;5088380;28;19925;-67
2023/07/05 00:27:40;;;;;;;;;;;;;;;;;;5083888;28;20019;-68
2023/07/05 00:30:07;;;;;;;;;;;;;;;;;;5090560;28;20011;-68
2023/07/05 00:32:34;;;;;;;;;;;;;;;;;;5090580;28;19957;-68
2023/07/05 00:35:01;;;;;;;;;;;;;;;;;;5090238;28;20445;-68
2023/07/05 00:37:28;;;;;;;;;;;;;;;;;;5089273;28;20408;-68
2023/07/05 00:39:55;;;;;;;;;;;;;;;;;;5091790;28;20465;-68
2023/07/05 00:42:22;;;;;;;;;;;;;;;;;;5089873;28;20454;-67
2023/07/05 00:44:49;;;;;;;;;;;;;;;;;;5091086;28;19928;-68
2023/07/05 00:47:16;;;;;;;;;;;;;;;;;;5089085;28;19990;-67
2023/07/05 00:49:43;;;;;;;;;;;;;;;;;;5079478;28;20302;-67
2023/07/05 00:52:10;;;;;;;;;;;;;;;;;;5088264;28;20027;-67
2023/07/05 00:54:37;;;;;;;;;;;;;;;;;;5090810;28;20007;-67
2023/07/05 00:57:04;;;;;;;;;;;;;;;;;;5090482;28;20019;-67
2023/07/05 00:59:31;;;;;;;;;;;;;;;;;;5090822;28;20019;-68
2023/07/05 01:01:58;;;;;;;;;;;;;;;;;;5091242;28;20023;-68
2023/07/05 01:04:25;;;;;;;;;;;;;;;;;;5091180;28;20018;-67
2023/07/05 01:06:52;;;;;;;;;;;;;;;;;;5088395;28;20379;-67
2023/07/05 01:09:19;;;;;;;;;;;;;;;;;;5078177;28;19924;-67
2023/07/05 01:11:48;;;;;;;;;;;;;;;;;;5101744;28;19967;-67
2023/07/05 01:14:15;;;;;;;;;;;;;;;;;;5090359;28;19932;-67
2023/07/05 01:16:42;;;;;;;;;;;;;;;;;;5088080;28;19970;-67
2023/07/05 01:19:09;;;;;;;;;;;;;;;;;;5089694;28;19966;-68
2023/07/05 01:21:36;;;;;;;;;;;;;;;;;;5091654;28;20406;-67
2023/07/05 01:24:03;;;;;;;;;;;;;;;;;;5091743;28;20355;-67
2023/07/05 01:26:30;;;;;;;;;;;;;;;;;;5089993;28;20442;-67
2023/07/05 01:28:57;;;;;;;;;;;;;;;;;;5088545;28;21779;-67
2023/07/05 01:31:24;;;;;;;;;;;;;;;;;;5087580;28;19954;-68
2023/07/05 01:33:50;;;;;;;;;;;;;;;;;;5093831;28;19931;-67
2023/07/05 01:36:17;;;;;;;;;;;;;;;;;;5092427;28;20465;-68
2023/07/05 01:38:44;;;;;;;;;;;;;;;;;;5093412;28;20360;-67
2023/07/05 01:41:11;;;;;;;;;;;;;;;;;;5092318;28;20002;-67
2023/07/05 01:43:38;;;;;;;;;;;;;;;;;;5091911;28;19969;-67
2023/07/05 01:46:06;;;;;;;;;;;;;;;;;;5093558;28;20441;-67
2023/07/05 01:48:34;;;;;;;;;;;;;;;;;;5096447;28;19924;-68
2023/07/05 01:51:01;;;;;;;;;;;;;;;;;;5093256;28;20023;-68
2023/07/05 01:53:28;;;;;;;;;;;;;;;;;;5095075;28;20019;-68
2023/07/05 01:55:55;;;;;;;;;;;;;;;;;;5092669;28;20026;-68
2023/07/05 01:58:22;;;;;;;;;;;;;;;;;;5095404;28;19924;-68
2023/07/05 02:00:50;;;;;;;;;;;;;;;;;;5088954;28;19930;-68
2023/07/05 02:03:17;;;;;;;;;;;;;;;;;;5094710;28;19924;-68
2023/07/05 02:05:44;;;;;;;;;;;;;;;;;;5093572;28;20011;-68
2023/07/05 02:08:13;;;;;;;;;;;;;;;;;;5093430;28;19924;-68
2023/07/05 02:10:40;;;;;;;;;;;;;;;;;;5093506;28;19924;-68
2023/07/05 02:13:08;;;;;;;;;;;;;;;;;;5094355;28;20299;-68
2023/07/05 02:15:37;;;;;;;;;;;;;;;;;;5094048;28;19932;-68
2023/07/05 02:18:04;;;;;;;;;;;;;;;;;;5087102;28;20011;-68
2023/07/05 02:20:31;;;;;;;;;;;;;;;;;;5091544;28;20037;-68
2023/07/05 02:22:59;;;;;;;;;;;;;;;;;;5094301;28;19975;-68
2023/07/05 02:25:26;;;;;;;;;;;;;;;;;;5095194;28;20403;-68
2023/07/05 02:27:53;;;;;;;;;;;;;;;;;;5094281;28;19931;-68
2023/07/05 02:30:22;;;;;;;;;;;;;;;;;;5090970;28;20447;-68
2023/07/05 02:32:48;;;;;;;;;;;;;;;;;;5086474;28;20342;-68
2023/07/05 02:35:15;;;;;;;;;;;;;;;;;;5093533;28;20088;-68
2023/07/05 02:37:42;;;;;;;;;;;;;;;;;;5092713;28;19967;-68
2023/07/05 02:40:09;;;;;;;;;;;;;;;;;;5093462;28;20386;-68
2023/07/05 02:42:36;;;;;;;;;;;;;;;;;;5090792;28;20011;-68
2023/07/05 02:45:03;;;;;;;;;;;;;;;;;;5093295;28;19971;-68
2023/07/05 02:47:30;;;;;;;;;;;;;;;;;;5093465;28;19930;-68
2023/07/05 02:49:57;;;;;;;;;;;;;;;;;;5094451;28;20015;-68
2023/07/05 02:52:24;;;;;;;;;;;;;;;;;;5093451;28;19924;-68
2023/07/05 02:54:51;;;;;;;;;;;;;;;;;;5094212;28;20415;-68
2023/07/05 02:57:18;;;;;;;;;;;;;;;;;;5090777;28;20458;-68
2023/07/05 02:59:45;;;;;;;;;;;;;;;;;;5094060;28;19967;-68
2023/07/05 03:02:12;;;;;;;;;;;;;;;;;;5093456;28;19975;-68
2023/07/05 03:04:39;;;;;;;;;;;;;;;;;;5094575;28;20242;-68
2023/07/05 03:07:06;;;;;;;;;;;;;;;;;;5089718;28;19924;-69
2023/07/05 03:09:33;;;;;;;;;;;;;;;;;;5094635;28;20015;-68
2023/07/05 03:12:00;;;;;;;;;;;;;;;;;;5092318;28;19924;-68
2023/07/05 03:14:27;;;;;;;;;;;;;;;;;;5084883;28;20023;-68
2023/07/05 03:16:54;;;;;;;;;;;;;;;;;;5093315;28;19924;-68
2023/07/05 03:19:21;;;;;;;;;;;;;;;;;;5093574;28;19964;-68
2023/07/05 03:21:48;;;;;;;;;;;;;;;;;;5092202;28;20007;-69
2023/07/05 03:24:15;;;;;;;;;;;;;;;;;;5085378;28;19928;-68
2023/07/05 03:26:42;;;;;;;;;;;;;;;;;;5089314;28;19932;-68
2023/07/05 03:29:09;;;;;;;;;;;;;;;;;;5092665;28;19928;-68
2023/07/05 03:31:36;;;;;;;;;;;;;;;;;;5092024;28;20019;-68
2023/07/05 03:34:03;;;;;;;;;;;;;;;;;;5089785;28;20011;-68
2023/07/05 03:36:30;;;;;;;;;;;;;;;;;;5089821;28;20057;-68
2023/07/05 03:38:57;;;;;;;;;;;;;;;;;;5087566;28;19924;-68
2023/07/05 03:41:24;;;;;;;;;;;;;;;;;;5089045;28;19931;-69
2023/07/05 03:43:51;;;;;;;;;;;;;;;;;;5090127;28;19928;-68
2023/07/05 03:46:18;;;;;;;;;;;;;;;;;;5089374;28;19966;-67
2023/07/05 03:48:45;;;;;;;;;;;;;;;;;;5088680;28;20018;-68
2023/07/05 03:51:12;;;;;;;;;;;;;;;;;;5088640;28;20019;-68
2023/07/05 03:53:39;;;;;;;;;;;;;;;;;;5092786;28;20294;-67
2023/07/05 03:56:06;;;;;;;;;;;;;;;;;;5092636;28;19978;-68
2023/07/05 03:58:33;;;;;;;;;;;;;;;;;;5083042;28;20024;-68
2023/07/05 04:01:00;;;;;;;;;;;;;;;;;;5091425;28;19962;-68
2023/07/05 04:03:27;;;;;;;;;;;;;;;;;;5092267;28;20018;-68
2023/07/05 04:05:54;;;;;;;;;;;;;;;;;;5091358;28;19936;-68
2023/07/05 04:08:20;;;;;;;;;;;;;;;;;;5092629;28;19924;-68
2023/07/05 04:10:48;;;;;;;;;;;;;;;;;;5089476;28;19990;-68
2023/07/05 04:13:15;;;;;;;;;;;;;;;;;;5086732;28;19931;-68
2023/07/05 04:15:42;;;;;;;;;;;;;;;;;;5080999;28;19931;-69
2023/07/05 04:18:09;;;;;;;;;;;;;;;;;;5093454;28;20014;-69
2023/07/05 04:20:36;;;;;;;;;;;;;;;;;;5090366;28;20015;-69
2023/07/05 04:23:03;;;;;;;;;;;;;;;;;;5091370;28;20027;-69
2023/07/05 04:25:29;;;;;;;;;;;;;;;;;;5088104;28;19924;-70
2023/07/05 04:27:56;;;;;;;;;;;;;;;;;;5092495;28;20011;-70
2023/07/05 04:30:23;;;;;;;;;;;;;;;;;;5091475;28;19924;-70
2023/07/05 04:32:51;;;;;;;;;;;;;;;;;;5088045;28;19950;-70
2023/07/05 04:35:19;;;;;;;;;;;;;;;;;;5087338;28;19959;-70
2023/07/05 04:37:46;;;;;;;;;;;;;;;;;;5087442;28;21210;-69
2023/07/05 04:40:13;;;;;;;;;;;;;;;;;;5092128;28;20014;-69
2023/07/05 04:42:40;;;;;;;;;;;;;;;;;;5089301;28;19971;-70
2023/07/05 04:45:07;;;;;;;;;;;;;;;;;;5084746;28;20474;-70
2023/07/05 04:47:34;;;;;;;;;;;;;;;;;;5088975;28;20021;-70
2023/07/05 04:50:00;;;;;;;;;;;;;;;;;;5092456;28;20019;-69
2023/07/05 04:52:27;;;;;;;;;;;;;;;;;;5100196;28;20018;-70
2023/07/05 04:54:55;;;;;;;;;;;;;;;;;;5091590;28;19924;-69
2023/07/05 04:57:22;;;;;;;;;;;;;;;;;;5092078;28;20011;-70
2023/07/05 04:59:51;;;;;;;;;;;;;;;;;;5091538;28;19967;-70
2023/07/05 05:02:18;;;;;;;;;;;;;;;;;;5090217;28;19924;-69
2023/07/05 05:04:45;;;;;;;;;;;;;;;;;;5088926;28;19955;-70
2023/07/05 05:07:13;;;;;;;;;;;;;;;;;;5086483;28;20023;-70
2023/07/05 05:09:40;;;;;;;;;;;;;;;;;;5089065;28;20314;-70
2023/07/05 05:12:07;;;;;;;;;;;;;;;;;;5090628;28;20446;-70
2023/07/05 05:14:34;;;;;;;;;;;;;;;;;;5090847;28;20355;-70
2023/07/05 05:17:01;;;;;;;;;;;;;;;;;;5088425;28;19928;-70
2023/07/05 05:19:28;;;;;;;;;;;;;;;;;;5090447;28;19956;-69
2023/07/05 05:21:55;;;;;;;;;;;;;;;;;;5089688;28;19955;-69
2023/07/05 05:24:22;;;;;;;;;;;;;;;;;;5091355;28;20023;-70
2023/07/05 05:26:49;;;;;;;;;;;;;;;;;;5090840;28;20337;-69
2023/07/05 05:29:16;;;;;;;;;;;;;;;;;;5091234;28;20423;-70
2023/07/05 05:31:43;;;;;;;;;;;;;;;;;;5088813;28;20392;-69
2023/07/05 05:34:10;;;;;;;;;;;;;;;;;;5088735;28;20014;-70
2023/07/05 05:36:37;;;;;;;;;;;;;;;;;;5084955;28;20034;-70
2023/07/05 05:39:04;;;;;;;;;;;;;;;;;;5090455;28;20014;-69
2023/07/05 05:41:31;;;;;;;;;;;;;;;;;;5090505;28;19931;-70
2023/07/05 05:43:58;;;;;;;;;;;;;;;;;;5089818;28;19931;-70
2023/07/05 05:46:25;;;;;;;;;;;;;;;;;;5087081;28;20014;-70
2023/07/05 05:48:52;;;;;;;;;;;;;;;;;;5090723;28;20572;-70
2023/07/05 05:51:19;;;;;;;;;;;;;;;;;;5089349;28;20461;-70
2023/07/05 05:53:45;;;;;;;;;;;;;;;;;;5090176;28;20577;-69
2023/07/05 05:56:12;;;;;;;;;;;;;;;;;;5088765;28;20274;-70
2023/07/05 05:58:39;;;;;;;;;;;;;;;;;;5090030;28;20019;-68
2023/07/05 06:01:06;;;;;;;;;;;;;;;;;;5090715;28;20448;-69
2023/07/05 06:03:33;;;;;;;;;;;;;;;;;;5089356;28;19924;-69
2023/07/05 06:06:00;;;;;;;;;;;;;;;;;;5089957;28;19925;-69
2023/07/05 06:08:28;;;;;;;;;;;;;;;;;;5088213;28;20402;-69
2023/07/05 06:10:55;;;;;;;;;;;;;;;;;;5089523;28;19932;-69
2023/07/05 06:13:22;;;;;;;;;;;;;;;;;;5091713;28;19950;-69
2023/07/05 06:15:49;;;;;;;;;;;;;;;;;;5087524;28;20011;-69
2023/07/05 06:18:16;;;;;;;;;;;;;;;;;;5090136;28;20011;-68
2023/07/05 06:20:43;;;;;;;;;;;;;;;;;;5092040;28;19993;-68
2023/07/05 06:23:10;;;;;;;;;;;;;;;;;;5094355;28;19924;-69
2023/07/05 06:25:37;;;;;;;;;;;;;;;;;;5092234;28;20411;-70
2023/07/05 06:28:04;;;;;;;;;;;;;;;;;;5093552;28;19924;-70
2023/07/05 06:30:31;;;;;;;;;;;;;;;;;;5090549;28;19938;-70
2023/07/05 06:32:58;;;;;;;;;;;;;;;;;;5092896;28;20036;-69
2023/07/05 06:35:25;;;;;;;;;;;;;;;;;;5091873;28;20565;-69
2023/07/05 06:37:52;;;;;;;;;;;;;;;;;;5091569;28;19988;-70
2023/07/05 06:40:20;;;;;;;;;;;;;;;;;;5089030;28;19924;-69
2023/07/05 06:42:47;;;;;;;;;;;;;;;;;;5085299;28;19931;-70
2023/07/05 06:45:14;;;;;;;;;;;;;;;;;;5091188;28;19963;-70
2023/07/05 06:47:41;;;;;;;;;;;;;;;;;;5091224;28;19971;-70
2023/07/05 06:50:08;;;;;;;;;;;;;;;;;;5097156;28;20018;-70
2023/07/05 06:52:35;;;;;;;;;;;;;;;;;;5093448;28;19985;-69
2023/07/05 06:55:02;;;;;;;;;;;;;;;;;;5092396;28;19924;-70
2023/07/05 06:57:29;;;;;;;;;;;;;;;;;;5083819;28;19983;-69
2023/07/05 06:59:56;;;;;;;;;;;;;;;;;;5088903;28;19963;-70
2023/07/05 07:02:23;;;;;;;;;;;;;;;;;;5086924;28;20467;-70
2023/07/05 07:04:50;;;;;;;;;;;;;;;;;;5089018;28;19936;-70
2023/07/05 07:07:17;;;;;;;;;;;;;;;;;;5093720;28;19964;-71
2023/07/05 07:09:44;;;;;;;;;;;;;;;;;;5089665;28;20011;-70
2023/07/05 07:12:12;;;;;;;;;;;;;;;;;;5068570;28;19924;-70
2023/07/05 07:14:39;;;;;;;;;;;;;;;;;;5088806;28;20406;-70
2023/07/05 07:17:06;;;;;;;;;;;;;;;;;;5090060;28;19963;-70
2023/07/05 07:19:33;;;;;;;;;;;;;;;;;;5092229;28;19938;-70
2023/07/05 07:22:02;;;;;;;;;;;;;;;;;;5087383;28;20022;-71
2023/07/05 07:24:29;;;;;;;;;;;;;;;;;;5098104;28;19949;-70
2023/07/05 07:26:56;;;;;;;;;;;;;;;;;;5091622;28;19932;-70
2023/07/05 07:29:23;;;;;;;;;;;;;;;;;;5092095;28;19924;-70
2023/07/05 07:31:50;;;;;;;;;;;;;;;;;;5092313;28;19971;-70
2023/07/05 07:34:17;;;;;;;;;;;;;;;;;;5090021;28;20018;-70
2023/07/05 07:36:45;;;;;;;;;;;;;;;;;;5092104;28;19964;-71
2023/07/05 07:39:12;;;;;;;;;;;;;;;;;;5081412;28;19924;-71
2023/07/05 07:41:39;;;;;;;;;;;;;;;;;;5087841;28;20011;-70
2023/07/05 07:44:06;;;;;;;;;;;;;;;;;;5091314;28;20007;-70
2023/07/05 07:46:33;;;;;;;;;;;;;;;;;;5086757;28;19924;-70
2023/07/05 07:49:00;;;;;;;;;;;;;;;;;;5091909;28;19928;-70
2023/07/05 07:51:27;;;;;;;;;;;;;;;;;;5082324;28;20015;-71
2023/07/05 07:53:53;;;;;;;;;;;;;;;;;;5088543;28;19996;-70
2023/07/05 07:56:20;;;;;;;;;;;;;;;;;;5087382;28;19952;-70
2023/07/05 07:58:47;;;;;;;;;;;;;;;;;;5091964;28;20031;-70
2023/07/05 08:01:14;;;;;;;;;;;;;;;;;;5083694;28;19951;-70
2023/07/05 08:03:41;;;;;;;;;;;;;;;;;;5091434;28;20023;-69
2023/07/05 08:06:08;;;;;;;;;;;;;;;;;;5092008;28;19971;-69
2023/07/05 08:08:35;;;;;;;;;;;;;;;;;;5086438;28;19924;-69
2023/07/05 08:11:03;;;;;;;;;;;;;;;;;;5075290;28;20027;-69
2023/07/05 08:13:30;;;;;;;;;;;;;;;;;;5085778;28;19931;-69
2023/07/05 08:15:57;;;;;;;;;;;;;;;;;;5092330;28;19986;-69
2023/07/05 08:18:24;;;;;;;;;;;;;;;;;;5091304;28;20023;-70
2023/07/05 08:20:51;;;;;;;;;;;;;;;;;;5088357;28;19954;-69
2023/07/05 08:23:18;;;;;;;;;;;;;;;;;;5090623;28;20340;-69
2023/07/05 08:25:45;;;;;;;;;;;;;;;;;;5085822;28;20049;-69
2023/07/05 08:28:13;;;;;;;;;;;;;;;;;;5087680;28;20008;-69
2023/07/05 08:30:40;;;;;;;;;;;;;;;;;;5083571;28;20388;-70
2023/07/05 08:33:07;;;;;;;;;;;;;;;;;;5084072;28;20023;-69
2023/07/05 08:35:34;;;;;;;;;;;;;;;;;;5073858;28;20375;-69
2023/07/05 08:38:01;;;;;;;;;;;;;;;;;;5083235;28;20365;-69
2023/07/05 08:40:28;;;;;;;;;;;;;;;;;;5081676;28;20387;-69
2023/07/05 08:42:55;;;;;;;;;;;;;;;;;;5089495;28;19928;-69
2023/07/05 08:45:22;;;;;;;;;;;;;;;;;;5089790;28;20072;-69
2023/07/05 08:47:49;;;;;;;;;;;;;;;;;;5089585;28;19963;-69
2023/07/05 08:50:16;;;;;;;;;;;;;;;;;;5088030;28;20014;-69
2023/07/05 08:52:43;;;;;;;;;;;;;;;;;;5084453;28;20035;-69
2023/07/05 08:55:10;;;;;;;;;;;;;;;;;;5091575;28;20019;-69
2023/07/05 08:57:37;;;;;;;;;;;;;;;;;;5088583;28;19969;-70
2023/07/05 09:00:08;;;;;;;;;;;;;;;;;;5089484;28;19985;-70
2023/07/05 09:02:35;;;;;;;;;;;;;;;;;;5091091;28;19924;-71
2023/07/05 09:05:04;;;;;;;;;;;;;;;;;;5091931;28;20367;-70
2023/07/05 09:07:31;;;;;;;;;;;;;;;;;;5090304;28;20347;-69
2023/07/05 09:09:58;;;;;;;;;;;;;;;;;;5084835;28;20014;-69
2023/07/05 09:12:25;;;;;;;;;;;;;;;;;;5076189;28;20492;-71
2023/07/05 09:14:52;;;;;;;;;;;;;;;;;;5080908;28;19930;-70
2023/07/05 09:17:19;;;;;;;;;;;;;;;;;;5091522;28;19932;-70
2023/07/05 09:19:46;;;;;;;;;;;;;;;;;;5085972;28;19931;-70
2023/07/05 09:22:13;;;;;;;;;;;;;;;;;;5090821;28;20031;-71
2023/07/05 09:24:40;;;;;;;;;;;;;;;;;;5086550;28;20015;-70
2023/07/05 09:27:07;;;;;;;;;;;;;;;;;;5089020;28;19924;-70
2023/07/05 09:29:34;;;;;;;;;;;;;;;;;;5086702;28;19932;-70
2023/07/05 09:32:01;;;;;;;;;;;;;;;;;;5085639;28;19925;-71
2023/07/05 09:34:28;;;;;;;;;;;;;;;;;;5083496;28;20011;-70
2023/07/05 09:36:54;;;;;;;;;;;;;;;;;;5091786;28;20383;-69
2023/07/05 09:39:21;;;;;;;;;;;;;;;;;;5085824;28;20293;-71
2023/07/05 09:41:49;;;;;;;;;;;;;;;;;;5089161;28;20004;-69
2023/07/05 09:44:19;;;;;;;;;;;;;;;;;;5089108;28;19993;-70
2023/07/05 09:46:45;;;;;;;;;;;;;;;;;;5082712;28;20135;-68
2023/07/05 09:49:12;;;;;;;;;;;;;;;;;;5090621;28;20008;-70
2023/07/05 09:51:41;;;;;;;;;;;;;;;;;;5090466;28;19924;-68
2023/07/05 09:54:10;;;;;;;;;;;;;;;;;;5094019;28;19928;-69
2023/07/05 09:56:37;;;;;;;;;;;;;;;;;;5094367;28;19928;-69
2023/07/05 09:59:04;;;;;;;;;;;;;;;;;;5108503;28;19967;-69
2023/07/05 10:01:33;;;;;;;;;;;;;;;;;;5090284;28;19928;-69
2023/07/05 10:04:00;;;;;;;;;;;;;;;;;;5092625;28;19928;-69
2023/07/05 10:06:27;;;;;;;;;;;;;;;;;;5083446;28;20007;-69
2023/07/05 10:08:54;;;;;;;;;;;;;;;;;;5074126;28;20018;-69
2023/07/05 10:11:21;;;;;;;;;;;;;;;;;;5074405;28;19928;-69
2023/07/05 10:13:48;;;;;;;;;;;;;;;;;;5091042;28;19960;-70
2023/07/05 10:16:16;;;;;;;;;;;;;;;;;;5095439;28;19971;-69
2023/07/05 10:18:43;;;;;;;;;;;;;;;;;;5091920;28;20410;-69
2023/07/05 10:21:11;;;;;;;;;;;;;;;;;;5090114;28;19924;-69
2023/07/05 10:23:38;;;;;;;;;;;;;;;;;;5086344;28;19924;-69
2023/07/05 10:26:05;;;;;;;;;;;;;;;;;;5087375;28;20030;-69
2023/07/05 10:28:32;;;;;;;;;;;;;;;;;;5085018;28;19931;-69
2023/07/05 10:31:00;;;;;;;;;;;;;;;;;;5092888;28;20019;-68
2023/07/05 10:33:27;;;;;;;;;;;;;;;;;;5093219;28;20394;-70
2023/07/05 10:35:54;;;;;;;;;;;;;;;;;;5092178;28;20031;-69
2023/07/05 10:38:21;;;;;;;;;;;;;;;;;;5093413;28;19927;-70
2023/07/05 10:40:49;;;;;;;;;;;;;;;;;;5088194;28;20344;-69
2023/07/05 10:43:17;;;;;;;;;;;;;;;;;;5084721;28;19924;-69
2023/07/05 10:45:44;;;;;;;;;;;;;;;;;;5091550;28;19931;-69
2023/07/05 10:48:11;;;;;;;;;;;;;;;;;;5083484;28;20332;-69
2023/07/05 10:50:39;;;;;;;;;;;;;;;;;;5092543;28;20369;-69
2023/07/05 10:53:06;;;;;;;;;;;;;;;;;;5091640;28;19928;-69
2023/07/05 10:55:33;;;;;;;;;;;;;;;;;;5087765;28;20019;-69
2023/07/05 10:58:00;;;;;;;;;;;;;;;;;;5081796;28;19993;-69
2023/07/05 11:00:28;;;;;;;;;;;;;;;;;;5092353;28;20032;-69
2023/07/05 11:02:56;;;;;;;;;;;;;;;;;;5091853;28;19963;-69
2023/07/05 11:05:23;;;;;;;;;;;;;;;;;;5085492;28;19951;-69
2023/07/05 11:07:50;;;;;;;;;;;;;;;;;;5088469;28;19924;-69
2023/07/05 11:10:17;;;;;;;;;;;;;;;;;;5083599;28;19928;-69
2023/07/05 11:12:44;;;;;;;;;;;;;;;;;;5079082;28;20011;-69
2023/07/05 11:15:11;;;;;;;;;;;;;;;;;;5088328;28;20026;-69
2023/07/05 11:17:38;;;;;;;;;;;;;;;;;;5092381;28;19978;-69
2023/07/05 11:20:06;;;;;;;;;;;;;;;;;;5088965;28;19924;-69
2023/07/05 11:22:34;;;;;;;;;;;;;;;;;;5091238;28;20387;-69
2023/07/05 11:25:01;;;;;;;;;;;;;;;;;;5090145;28;19927;-70
2023/07/05 11:27:29;;;;;;;;;;;;;;;;;;5089508;28;20015;-69
2023/07/05 11:29:56;;;;;;;;;;;;;;;;;;5076703;28;19959;-69
2023/07/05 11:32:23;;;;;;;;;;;;;;;;;;5080855;28;19935;-69
2023/07/05 11:34:50;;;;;;;;;;;;;;;;;;5089639;28;19924;-70
2023/07/05 11:37:17;;;;;;;;;;;;;;;;;;5082507;28;19928;-69
2023/07/05 11:39:45;;;;;;;;;;;;;;;;;;5084296;28;19924;-69
2023/07/05 11:42:12;;;;;;;;;;;;;;;;;;5088963;28;19924;-70
2023/07/05 11:44:39;;;;;;;;;;;;;;;;;;5088179;28;20383;-69
2023/07/05 11:47:06;;;;;;;;;;;;;;;;;;5083143;28;20471;-70
2023/07/05 11:49:34;;;;;;;;;;;;;;;;;;5088571;28;19928;-69
2023/07/05 11:52:01;;;;;;;;;;;;;;;;;;5084779;28;19924;-69
2023/07/05 11:54:28;;;;;;;;;;;;;;;;;;5090390;28;19927;-70
2023/07/05 11:56:55;;;;;;;;;;;;;;;;;;5092271;28;19975;-69
2023/07/05 11:59:22;;;;;;;;;;;;;;;;;;5088084;28;20382;-71
2023/07/05 12:01:49;;;;;;;;;;;;;;;;;;5087832;28;19924;-70
2023/07/05 12:04:16;;;;;;;;;;;;;;;;;;5088315;28;19924;-70
2023/07/05 12:06:42;;;;;;;;;;;;;;;;;;5079929;28;19969;-70
2023/07/05 12:09:10;;;;;;;;;;;;;;;;;;5086289;28;20015;-70
2023/07/05 12:11:38;;;;;;;;;;;;;;;;;;5085937;28;19936;-70
2023/07/05 12:14:05;;;;;;;;;;;;;;;;;;5091791;28;19947;-70
2023/07/05 12:16:32;;;;;;;;;;;;;;;;;;5088988;28;19993;-71
2023/07/05 12:19:00;;;;;;;;;;;;;;;;;;5082813;28;19936;-70
2023/07/05 12:21:27;;;;;;;;;;;;;;;;;;5087825;28;19928;-71
2023/07/05 12:23:54;;;;;;;;;;;;;;;;;;5092339;28;20379;-69
2023/07/05 12:26:22;;;;;;;;;;;;;;;;;;5087339;28;19928;-70
2023/07/05 12:28:49;;;;;;;;;;;;;;;;;;5090561;28;20296;-72
2023/07/05 12:31:16;;;;;;;;;;;;;;;;;;5081439;28;19967;-72
2023/07/05 12:33:45;;;;;;;;;;;;;;;;;;5083679;28;20006;-72
2023/07/05 12:36:12;;;;;;;;;;;;;;;;;;5085671;28;19924;-73
2023/07/05 12:38:39;;;;;;;;;;;;;;;;;;5081232;28;19924;-74
2023/07/05 12:41:07;;;;;;;;;;;;;;;;;;5076467;28;20295;-73
2023/07/05 12:43:34;;;;;;;;;;;;;;;;;;5084688;28;19928;-73
2023/07/05 12:46:01;;;;;;;;;;;;;;;;;;5080171;28;19978;-73
2023/07/05 12:48:29;;;;;;;;;;;;;;;;;;5088599;28;20362;-74
2023/07/05 12:50:56;;;;;;;;;;;;;;;;;;5083271;28;19981;-74
2023/07/05 12:53:23;;;;;;;;;;;;;;;;;;5088379;28;20386;-73
2023/07/05 12:55:50;;;;;;;;;;;;;;;;;;5084397;28;19931;-73
2023/07/05 12:58:17;;;;;;;;;;;;;;;;;;5080833;28;19924;-73
2023/07/05 13:00:44;;;;;;;;;;;;;;;;;;5080204;28;19932;-73
2023/07/05 13:03:11;;;;;;;;;;;;;;;;;;5086301;28;19993;-70
2023/07/05 13:05:38;;;;;;;;;;;;;;;;;;5088785;28;19924;-70
2023/07/05 13:08:06;;;;;;;;;;;;;;;;;;5089152;28;19924;-71
2023/07/05 13:10:33;;;;;;;;;;;;;;;;;;5081310;28;19924;-70
2023/07/05 13:13:00;;;;;;;;;;;;;;;;;;5086728;28;19931;-70
2023/07/05 13:15:27;;;;;;;;;;;;;;;;;;5089728;28;19931;-71
2023/07/05 13:17:54;;;;;;;;;;;;;;;;;;5088962;28;19963;-71
2023/07/05 13:20:21;;;;;;;;;;;;;;;;;;5083378;28;19930;-70
2023/07/05 13:22:48;;;;;;;;;;;;;;;;;;5086298;28;20110;-71
2023/07/05 13:27:40;;;;;;;;;;;;;;;;;;5045441;22;19998;-71
2023/07/05 13:30:08;;;;;;;;;;;;;;;;;;5037970;28;20011;-70
2023/07/05 13:32:35;;;;;;;;;;;;;;;;;;5034078;28;19933;-70
2023/07/05 13:35:02;;;;;;;;;;;;;;;;;;5027460;28;20037;-70
2023/07/05 13:37:29;;;;;;;;;;;;;;;;;;5038075;28;20055;-71
2023/07/05 13:39:56;;;;;;;;;;;;;;;;;;5032125;28;19983;-70
2023/07/05 13:42:23;;;;;;;;;;;;;;;;;;5037325;28;20380;-71
2023/07/05 13:44:50;;;;;;;;;;;;;;;;;;5033463;28;19943;-70
2023/07/05 13:47:17;;;;;;;;;;;;;;;;;;5036635;28;20448;-71
2023/07/05 13:49:44;;;;;;;;;;;;;;;;;;5025352;28;19932;-71
2023/07/05 13:52:11;;;;;;;;;;;;;;;;;;5032134;28;19929;-71
2023/07/05 13:54:38;;;;;;;;;;;;;;;;;;5016268;28;20008;-70
2023/07/05 13:57:05;;;;;;;;;;;;;;;;;;5015557;28;20436;-70
2023/07/05 13:59:32;;;;;;;;;;;;;;;;;;5022833;28;19979;-69
2023/07/05 14:02:00;;;;;;;;;;;;;;;;;;5024391;28;20008;-71
2023/07/05 14:04:27;;;;;;;;;;;;;;;;;;5035675;28;19925;-70
2023/07/05 14:06:54;;;;;;;;;;;;;;;;;;5036890;28;20020;-71
2023/07/05 14:09:22;;;;;;;;;;;;;;;;;;5026141;28;20033;-71
2023/07/05 14:11:49;;;;;;;;;;;;;;;;;;5029340;28;19968;-71
2023/07/05 14:14:16;;;;;;;;;;;;;;;;;;5027448;28;19959;-71
2023/07/05 14:16:43;;;;;;;;;;;;;;;;;;5038886;28;19974;-72
2023/07/05 14:19:10;;;;;;;;;;;;;;;;;;5029117;28;20017;-69
2023/07/05 14:21:37;;;;;;;;;;;;;;;;;;5030375;28;20020;-69
2023/07/05 14:24:04;;;;;;;;;;;;;;;;;;5029549;28;19925;-69
2023/07/05 14:26:31;;;;;;;;;;;;;;;;;;5016911;28;19925;-71
2023/07/05 14:28:59;;;;;;;;;;;;;;;;;;5025258;28;19932;-71
2023/07/05 14:31:26;;;;;;;;;;;;;;;;;;5028240;28;20381;-71
2023/07/05 14:33:54;;;;;;;;;;;;;;;;;;5030383;28;19956;-71
2023/07/05 14:36:22;;;;;;;;;;;;;;;;;;5023247;28;20388;-71
2023/07/05 14:38:49;;;;;;;;;;;;;;;;;;5021480;28;19925;-71
2023/07/05 14:41:16;;;;;;;;;;;;;;;;;;5031891;28;20292;-71
2023/07/05 14:43:43;;;;;;;;;;;;;;;;;;5028433;28;19978;-68
2023/07/05 14:46:10;;;;;;;;;;;;;;;;;;5028784;28;19929;-67
2023/07/05 14:48:37;;;;;;;;;;;;;;;;;;5033316;28;19925;-68
2023/07/05 14:51:04;;;;;;;;;;;;;;;;;;5027262;28;19925;-71
2023/07/05 14:53:31;;;;;;;;;;;;;;;;;;5017025;28;20019;-70
2023/07/05 14:55:58;;;;;;;;;;;;;;;;;;5024320;28;20020;-69
2023/07/05 14:58:25;;;;;;;;;;;;;;;;;;5030582;28;20413;-71
2023/07/05 15:00:52;;;;;;;;;;;;;;;;;;5029418;28;19988;-71
2023/07/05 15:03:19;;;;;;;;;;;;;;;;;;5028302;28;19952;-69
2023/07/05 15:05:46;;;;;;;;;;;;;;;;;;5033549;28;19928;-69
2023/07/05 15:08:13;;;;;;;;;;;;;;;;;;5032483;28;20384;-71
2023/07/05 15:10:40;;;;;;;;;;;;;;;;;;5032516;28;20296;-70
2023/07/05 15:13:07;;;;;;;;;;;;;;;;;;5031989;28;19972;-70
2023/07/05 15:15:35;;;;;;;;;;;;;;;;;;5029641;28;20027;-70
2023/07/05 15:18:02;;;;;;;;;;;;;;;;;;5022511;28;19926;-70
2023/07/05 15:20:29;;;;;;;;;;;;;;;;;;5024708;28;20019;-70
2023/07/05 15:22:56;;;;;;;;;;;;;;;;;;5033005;28;20004;-70
2023/07/05 15:25:23;;;;;;;;;;;;;;;;;;5034195;28;20012;-70
2023/07/05 15:27:50;;;;;;;;;;;;;;;;;;5030006;28;19925;-71
2023/07/05 15:30:17;;;;;;;;;;;;;;;;;;5033200;28;19948;-71
2023/07/05 15:32:44;;;;;;;;;;;;;;;;;;5032958;28;20033;-70
2023/07/05 15:35:11;;;;;;;;;;;;;;;;;;5033528;28;19999;-69
2023/07/05 15:37:38;;;;;;;;;;;;;;;;;;5026355;28;20029;-70
2023/07/05 15:40:05;;;;;;;;;;;;;;;;;;5021851;28;19926;-70
2023/07/05 15:42:32;;;;;;;;;;;;;;;;;;5032117;28;19932;-71
2023/07/05 15:44:59;;;;;;;;;;;;;;;;;;5029610;28;19929;-70
2023/07/05 15:47:26;;;;;;;;;;;;;;;;;;5031823;28;20674;-70
2023/07/05 15:49:53;;;;;;;;;;;;;;;;;;5032159;28;20381;-70
2023/07/05 15:52:20;;;;;;;;;;;;;;;;;;5030899;28;19968;-70
2023/07/05 15:54:47;;;;;;;;;;;;;;;;;;5027369;28;19965;-71
2023/07/05 15:57:14;;;;;;;;;;;;;;;;;;5027349;28;20008;-68
2023/07/05 15:59:46;;;;;;;;;;;;;;;;;;5026762;28;20016;-70
2023/07/05 16:02:14;;;;;;;;;;;;;;;;;;5029593;28;20399;-70
2023/07/05 16:04:41;;;;;;;;;;;;;;;;;;5021216;28;19932;-71
2023/07/05 16:07:09;;;;;;;;;;;;;;;;;;5016563;28;19952;-69
2023/07/05 16:09:36;;;;;;;;;;;;;;;;;;5031333;28;19937;-70
2023/07/05 16:12:03;;;;;;;;;;;;;;;;;;5024261;28;20004;-69
2023/07/05 16:14:30;;;;;;;;;;;;;;;;;;5022381;28;20377;-70
2023/07/05 16:16:57;;;;;;;;;;;;;;;;;;5022526;28;19929;-70
2023/07/05 16:19:24;;;;;;;;;;;;;;;;;;5026015;28;20035;-70
2023/07/05 16:21:51;;;;;;;;;;;;;;;;;;5033329;28;19941;-70
2023/07/05 16:24:18;;;;;;;;;;;;;;;;;;5025391;28;20028;-69
2023/07/05 16:26:45;;;;;;;;;;;;;;;;;;5024848;28;19932;-69
2023/07/05 16:29:13;;;;;;;;;;;;;;;;;;5024051;28;20043;-70
2023/07/05 16:31:40;;;;;;;;;;;;;;;;;;5033458;28;19924;-70
2023/07/05 16:34:07;;;;;;;;;;;;;;;;;;5030258;28;19925;-69
2023/07/05 16:36:34;;;;;;;;;;;;;;;;;;5028389;28;20372;-68
2023/07/05 16:39:02;;;;;;;;;;;;;;;;;;5026527;28;20012;-68
2023/07/05 16:41:30;;;;;;;;;;;;;;;;;;5025348;28;19968;-69
2023/07/05 16:43:57;;;;;;;;;;;;;;;;;;5031174;28;20303;-69
2023/07/05 16:46:24;;;;;;;;;;;;;;;;;;5028951;28;19933;-70